sensor_id;sensor_type;location;lat;lon;timestamp;P1;durP1;ratioP1;P2;durP2;ratioP2
9465;SDS011;4771;48.726;9.006;2023-07-20T00:00:05;2.83;;;2.13;;
9465;SDS011;4771;48.726;9.006;2023-07-20T00:02:33;3.25;;;2.00;;
9465;SDS011;4771;48.726;9.006;2023-07-20T00:05:00;2.88;;;2.10;;
9465;SDS011;4771;48.726;9.006;2023-07-20T00:07:27;3.47;;;2.30;;
9465;SDS011;4771;48.726;9.006;2023-07-20T00:09:54;6.20;;;2.42;;
9465;SDS011;4771;48.726;9.006;2023-07-20T00:12:22;4.18;;;2.22;;
9465;SDS011;4771;48.726;9.006;2023-07-20T00:14:50;3.28;;;2.10;;
9465;SDS011;4771;48.726;9.006;2023-07-20T00:17:18;4.78;;;2.42;;
9465;SDS011;4771;48.726;9.006;2023-07-20T00:19:45;3.50;;;2.00;;
9465;SDS011;4771;48.726;9.006;2023-07-20T00:22:12;3.83;;;2.30;;
9465;SDS011;4771;48.726;9.006;2023-07-20T00:24:39;2.83;;;2.10;;
9465;SDS011;4771;48.726;9.006;2023-07-20T00:27:06;5.22;;;2.17;;
9465;SDS011;4771;48.726;9.006;2023-07-20T00:29:33;3.30;;;1.90;;
9465;SDS011;4771;48.726;9.006;2023-07-20T00:32:01;2.80;;;2.00;;
9465;SDS011;4771;48.726;9.006;2023-07-20T00:34:30;4.72;;;2.20;;
9465;SDS011;4771;48.726;9.006;2023-07-20T00:36:57;3.60;;;2.47;;
9465;SDS011;4771;48.726;9.006;2023-07-20T00:39:24;2.20;;;1.70;;
9465;SDS011;4771;48.726;9.006;2023-07-20T00:41:50;2.70;;;1.80;;
9465;SDS011;4771;48.726;9.006;2023-07-20T00:44:17;2.65;;;2.05;;
9465;SDS011;4771;48.726;9.006;2023-07-20T00:46:44;2.10;;;1.90;;
9465;SDS011;4771;48.726;9.006;2023-07-20T00:49:12;6.00;;;1.95;;
9465;SDS011;4771;48.726;9.006;2023-07-20T00:51:40;3.72;;;1.90;;
9465;SDS011;4771;48.726;9.006;2023-07-20T00:54:07;2.40;;;2.00;;
9465;SDS011;4771;48.726;9.006;2023-07-20T00:56:34;4.85;;;2.05;;
9465;SDS011;4771;48.726;9.006;2023-07-20T00:59:02;5.05;;;1.95;;
9465;SDS011;4771;48.726;9.006;2023-07-20T01:01:29;5.55;;;2.10;;
9465;SDS011;4771;48.726;9.006;2023-07-20T01:03:56;4.82;;;2.30;;
9465;SDS011;4771;48.726;9.006;2023-07-20T01:06:26;3.22;;;2.00;;
9465;SDS011;4771;48.726;9.006;2023-07-20T01:09:02;2.95;;;1.85;;
9465;SDS011;4771;48.726;9.006;2023-07-20T01:11:42;3.08;;;2.20;;
9465;SDS011;4771;48.726;9.006;2023-07-20T01:14:13;4.20;;;2.15;;
9465;SDS011;4771;48.726;9.006;2023-07-20T01:16:41;3.33;;;1.92;;
9465;SDS011;4771;48.726;9.006;2023-07-20T01:19:09;4.90;;;2.05;;
9465;SDS011;4771;48.726;9.006;2023-07-20T01:21:39;4.20;;;2.13;;
9465;SDS011;4771;48.726;9.006;2023-07-20T01:24:18;3.83;;;1.98;;
9465;SDS011;4771;48.726;9.006;2023-07-20T01:27:00;4.30;;;2.00;;
9465;SDS011;4771;48.726;9.006;2023-07-20T01:29:51;4.60;;;2.28;;
9465;SDS011;4771;48.726;9.006;2023-07-20T01:32:30;6.32;;;2.25;;
9465;SDS011;4771;48.726;9.006;2023-07-20T01:34:59;4.97;;;1.92;;
9465;SDS011;4771;48.726;9.006;2023-07-20T01:37:28;4.28;;;2.03;;
9465;SDS011;4771;48.726;9.006;2023-07-20T01:39:58;5.93;;;1.95;;
9465;SDS011;4771;48.726;9.006;2023-07-20T01:42:26;3.50;;;2.17;;
9465;SDS011;4771;48.726;9.006;2023-07-20T01:44:53;2.55;;;2.15;;
9465;SDS011;4771;48.726;9.006;2023-07-20T01:47:20;3.05;;;2.08;;
9465;SDS011;4771;48.726;9.006;2023-07-20T01:49:48;2.97;;;2.00;;
9465;SDS011;4771;48.726;9.006;2023-07-20T01:52:15;2.35;;;1.85;;
9465;SDS011;4771;48.726;9.006;2023-07-20T01:54:42;5.30;;;1.90;;
9465;SDS011;4771;48.726;9.006;2023-07-20T01:57:09;2.80;;;2.17;;
9465;SDS011;4771;48.726;9.006;2023-07-20T01:59:35;3.00;;;2.13;;
9465;SDS011;4771;48.726;9.006;2023-07-20T02:02:02;2.35;;;1.95;;
9465;SDS011;4771;48.726;9.006;2023-07-20T02:04:30;2.63;;;1.95;;
9465;SDS011;4771;48.726;9.006;2023-07-20T02:06:58;3.40;;;2.20;;
9465;SDS011;4771;48.726;9.006;2023-07-20T02:09:25;3.17;;;2.00;;
9465;SDS011;4771;48.726;9.006;2023-07-20T02:11:52;4.90;;;2.20;;
9465;SDS011;4771;48.726;9.006;2023-07-20T02:14:19;3.42;;;2.08;;
9465;SDS011;4771;48.726;9.006;2023-07-20T02:16:47;2.85;;;1.98;;
9465;SDS011;4771;48.726;9.006;2023-07-20T02:19:17;3.80;;;2.28;;
9465;SDS011;4771;48.726;9.006;2023-07-20T02:21:44;3.22;;;2.00;;
9465;SDS011;4771;48.726;9.006;2023-07-20T02:24:13;3.45;;;2.10;;
9465;SDS011;4771;48.726;9.006;2023-07-20T02:26:39;2.70;;;2.10;;
9465;SDS011;4771;48.726;9.006;2023-07-20T02:29:07;3.90;;;2.10;;
9465;SDS011;4771;48.726;9.006;2023-07-20T02:31:36;3.50;;;2.10;;
9465;SDS011;4771;48.726;9.006;2023-07-20T02:34:04;2.92;;;2.00;;
9465;SDS011;4771;48.726;9.006;2023-07-20T02:36:31;4.70;;;2.22;;
9465;SDS011;4771;48.726;9.006;2023-07-20T02:38:58;4.18;;;2.47;;
9465;SDS011;4771;48.726;9.006;2023-07-20T02:41:28;4.93;;;2.10;;
9465;SDS011;4771;48.726;9.006;2023-07-20T02:43:55;4.80;;;2.60;;
9465;SDS011;4771;48.726;9.006;2023-07-20T02:46:22;4.72;;;2.33;;
9465;SDS011;4771;48.726;9.006;2023-07-20T02:48:49;3.17;;;2.22;;
9465;SDS011;4771;48.726;9.006;2023-07-20T02:51:16;3.10;;;2.10;;
9465;SDS011;4771;48.726;9.006;2023-07-20T02:53:43;3.38;;;2.03;;
9465;SDS011;4771;48.726;9.006;2023-07-20T02:56:10;3.92;;;2.05;;
9465;SDS011;4771;48.726;9.006;2023-07-20T02:58:39;3.47;;;2.10;;
9465;SDS011;4771;48.726;9.006;2023-07-20T03:01:10;4.97;;;2.10;;
9465;SDS011;4771;48.726;9.006;2023-07-20T03:03:38;4.80;;;2.33;;
9465;SDS011;4771;48.726;9.006;2023-07-20T03:06:05;3.72;;;2.15;;
9465;SDS011;4771;48.726;9.006;2023-07-20T03:08:34;4.82;;;2.25;;
9465;SDS011;4771;48.726;9.006;2023-07-20T03:11:01;3.85;;;2.10;;
9465;SDS011;4771;48.726;9.006;2023-07-20T03:13:28;2.90;;;2.10;;
9465;SDS011;4771;48.726;9.006;2023-07-20T03:15:57;3.00;;;2.00;;
9465;SDS011;4771;48.726;9.006;2023-07-20T03:18:24;3.08;;;2.03;;
9465;SDS011;4771;48.726;9.006;2023-07-20T03:20:51;2.90;;;2.25;;
9465;SDS011;4771;48.726;9.006;2023-07-20T03:23:18;6.80;;;2.08;;
9465;SDS011;4771;48.726;9.006;2023-07-20T03:25:44;3.80;;;2.13;;
9465;SDS011;4771;48.726;9.006;2023-07-20T03:28:11;5.60;;;2.35;;
9465;SDS011;4771;48.726;9.006;2023-07-20T03:30:38;2.58;;;1.95;;
9465;SDS011;4771;48.726;9.006;2023-07-20T03:33:06;3.55;;;2.30;;
9465;SDS011;4771;48.726;9.006;2023-07-20T03:35:33;5.38;;;2.35;;
9465;SDS011;4771;48.726;9.006;2023-07-20T03:38:00;3.10;;;2.13;;
9465;SDS011;4771;48.726;9.006;2023-07-20T03:40:27;3.30;;;1.92;;
9465;SDS011;4771;48.726;9.006;2023-07-20T03:42:53;2.92;;;1.83;;
9465;SDS011;4771;48.726;9.006;2023-07-20T03:45:20;2.85;;;2.20;;
9465;SDS011;4771;48.726;9.006;2023-07-20T03:47:49;3.92;;;2.45;;
9465;SDS011;4771;48.726;9.006;2023-07-20T03:50:17;3.92;;;2.20;;
9465;SDS011;4771;48.726;9.006;2023-07-20T03:52:44;3.05;;;2.33;;
9465;SDS011;4771;48.726;9.006;2023-07-20T03:55:11;4.40;;;2.50;;
9465;SDS011;4771;48.726;9.006;2023-07-20T03:57:37;3.35;;;2.10;;
9465;SDS011;4771;48.726;9.006;2023-07-20T04:00:05;2.38;;;2.17;;
9465;SDS011;4771;48.726;9.006;2023-07-20T04:02:33;4.32;;;2.50;;
9465;SDS011;4771;48.726;9.006;2023-07-20T04:04:59;3.33;;;2.33;;
9465;SDS011;4771;48.726;9.006;2023-07-20T04:07:28;2.97;;;2.22;;
9465;SDS011;4771;48.726;9.006;2023-07-20T04:09:54;3.53;;;2.20;;
9465;SDS011;4771;48.726;9.006;2023-07-20T04:12:21;4.68;;;2.50;;
9465;SDS011;4771;48.726;9.006;2023-07-20T04:14:48;4.30;;;2.17;;
9465;SDS011;4771;48.726;9.006;2023-07-20T04:17:15;3.95;;;2.30;;
9465;SDS011;4771;48.726;9.006;2023-07-20T04:19:42;3.72;;;2.35;;
9465;SDS011;4771;48.726;9.006;2023-07-20T04:22:09;4.00;;;2.55;;
9465;SDS011;4771;48.726;9.006;2023-07-20T04:24:37;2.53;;;2.20;;
9465;SDS011;4771;48.726;9.006;2023-07-20T04:27:04;4.40;;;2.70;;
9465;SDS011;4771;48.726;9.006;2023-07-20T04:29:31;4.47;;;2.50;;
9465;SDS011;4771;48.726;9.006;2023-07-20T04:31:58;5.18;;;2.20;;
9465;SDS011;4771;48.726;9.006;2023-07-20T04:34:25;4.25;;;2.25;;
9465;SDS011;4771;48.726;9.006;2023-07-20T04:36:52;3.88;;;2.25;;
9465;SDS011;4771;48.726;9.006;2023-07-20T04:39:19;4.40;;;2.40;;
9465;SDS011;4771;48.726;9.006;2023-07-20T04:41:47;3.92;;;2.30;;
9465;SDS011;4771;48.726;9.006;2023-07-20T04:44:14;4.00;;;2.33;;
9465;SDS011;4771;48.726;9.006;2023-07-20T04:46:41;3.85;;;2.40;;
9465;SDS011;4771;48.726;9.006;2023-07-20T04:49:07;5.30;;;2.47;;
9465;SDS011;4771;48.726;9.006;2023-07-20T04:51:34;3.00;;;2.20;;
9465;SDS011;4771;48.726;9.006;2023-07-20T04:54:01;2.80;;;2.45;;
9465;SDS011;4771;48.726;9.006;2023-07-20T04:56:28;4.00;;;2.35;;
9465;SDS011;4771;48.726;9.006;2023-07-20T04:58:56;3.55;;;2.20;;
9465;SDS011;4771;48.726;9.006;2023-07-20T05:01:23;4.78;;;2.28;;
9465;SDS011;4771;48.726;9.006;2023-07-20T05:03:51;2.92;;;2.15;;
9465;SDS011;4771;48.726;9.006;2023-07-20T05:06:18;2.92;;;2.00;;
9465;SDS011;4771;48.726;9.006;2023-07-20T05:08:45;4.47;;;2.10;;
9465;SDS011;4771;48.726;9.006;2023-07-20T05:11:12;4.03;;;2.08;;
9465;SDS011;4771;48.726;9.006;2023-07-20T05:13:39;2.45;;;2.05;;
9465;SDS011;4771;48.726;9.006;2023-07-20T05:16:08;2.80;;;1.90;;
9465;SDS011;4771;48.726;9.006;2023-07-20T05:18:34;3.58;;;1.98;;
9465;SDS011;4771;48.726;9.006;2023-07-20T05:21:01;6.65;;;2.20;;
9465;SDS011;4771;48.726;9.006;2023-07-20T05:23:28;3.17;;;2.17;;
9465;SDS011;4771;48.726;9.006;2023-07-20T05:25:55;4.22;;;1.90;;
9465;SDS011;4771;48.726;9.006;2023-07-20T05:28:22;3.55;;;2.00;;
9465;SDS011;4771;48.726;9.006;2023-07-20T05:30:49;5.13;;;2.17;;
9465;SDS011;4771;48.726;9.006;2023-07-20T05:33:19;4.72;;;2.00;;
9465;SDS011;4771;48.726;9.006;2023-07-20T05:35:46;3.13;;;1.88;;
9465;SDS011;4771;48.726;9.006;2023-07-20T05:38:13;2.75;;;1.90;;
9465;SDS011;4771;48.726;9.006;2023-07-20T05:40:40;4.03;;;2.03;;
9465;SDS011;4771;48.726;9.006;2023-07-20T05:43:08;2.78;;;2.08;;
9465;SDS011;4771;48.726;9.006;2023-07-20T05:45:35;3.80;;;2.03;;
9465;SDS011;4771;48.726;9.006;2023-07-20T05:48:02;3.30;;;2.50;;
9465;SDS011;4771;48.726;9.006;2023-07-20T05:50:30;3.35;;;1.90;;
9465;SDS011;4771;48.726;9.006;2023-07-20T05:52:57;2.47;;;1.98;;
9465;SDS011;4771;48.726;9.006;2023-07-20T05:55:24;4.82;;;2.30;;
9465;SDS011;4771;48.726;9.006;2023-07-20T05:57:51;4.82;;;2.60;;
9465;SDS011;4771;48.726;9.006;2023-07-20T06:00:20;3.20;;;2.00;;
9465;SDS011;4771;48.726;9.006;2023-07-20T06:02:51;4.45;;;2.20;;
9465;SDS011;4771;48.726;9.006;2023-07-20T06:05:18;2.15;;;1.90;;
9465;SDS011;4771;48.726;9.006;2023-07-20T06:07:46;2.80;;;2.10;;
9465;SDS011;4771;48.726;9.006;2023-07-20T06:10:13;6.57;;;2.30;;
9465;SDS011;4771;48.726;9.006;2023-07-20T06:12:40;4.43;;;2.03;;
9465;SDS011;4771;48.726;9.006;2023-07-20T06:15:16;3.08;;;2.17;;
9465;SDS011;4771;48.726;9.006;2023-07-20T06:17:51;3.35;;;2.13;;
9465;SDS011;4771;48.726;9.006;2023-07-20T06:20:18;5.80;;;2.40;;
9465;SDS011;4771;48.726;9.006;2023-07-20T06:22:44;5.80;;;2.28;;
9465;SDS011;4771;48.726;9.006;2023-07-20T06:25:13;3.65;;;2.17;;
9465;SDS011;4771;48.726;9.006;2023-07-20T06:27:40;6.95;;;2.28;;
9465;SDS011;4771;48.726;9.006;2023-07-20T06:30:08;4.35;;;2.17;;
9465;SDS011;4771;48.726;9.006;2023-07-20T06:32:35;3.92;;;2.10;;
9465;SDS011;4771;48.726;9.006;2023-07-20T06:35:02;3.80;;;2.15;;
9465;SDS011;4771;48.726;9.006;2023-07-20T06:37:29;2.72;;;2.03;;
9465;SDS011;4771;48.726;9.006;2023-07-20T06:39:59;3.13;;;2.10;;
9465;SDS011;4771;48.726;9.006;2023-07-20T06:42:26;3.70;;;1.70;;
9465;SDS011;4771;48.726;9.006;2023-07-20T06:44:53;3.70;;;1.98;;
9465;SDS011;4771;48.726;9.006;2023-07-20T06:47:19;8.23;;;2.53;;
9465;SDS011;4771;48.726;9.006;2023-07-20T06:49:46;4.28;;;2.72;;
9465;SDS011;4771;48.726;9.006;2023-07-20T06:52:13;6.30;;;2.10;;
9465;SDS011;4771;48.726;9.006;2023-07-20T06:54:40;4.15;;;2.45;;
9465;SDS011;4771;48.726;9.006;2023-07-20T06:57:08;3.92;;;2.03;;
9465;SDS011;4771;48.726;9.006;2023-07-20T06:59:35;4.25;;;1.88;;
9465;SDS011;4771;48.726;9.006;2023-07-20T07:02:02;5.13;;;2.08;;
9465;SDS011;4771;48.726;9.006;2023-07-20T07:04:29;5.50;;;2.55;;
9465;SDS011;4771;48.726;9.006;2023-07-20T07:06:56;3.78;;;2.10;;
9465;SDS011;4771;48.726;9.006;2023-07-20T07:09:23;4.22;;;2.03;;
9465;SDS011;4771;48.726;9.006;2023-07-20T07:11:50;4.15;;;2.10;;
9465;SDS011;4771;48.726;9.006;2023-07-20T07:14:19;5.05;;;2.20;;
9465;SDS011;4771;48.726;9.006;2023-07-20T07:16:46;7.63;;;2.25;;
9465;SDS011;4771;48.726;9.006;2023-07-20T07:19:13;5.55;;;2.50;;
9465;SDS011;4771;48.726;9.006;2023-07-20T07:21:40;3.50;;;2.10;;
9465;SDS011;4771;48.726;9.006;2023-07-20T07:24:07;4.50;;;2.30;;
9465;SDS011;4771;48.726;9.006;2023-07-20T07:26:35;7.68;;;2.13;;
9465;SDS011;4771;48.726;9.006;2023-07-20T07:29:02;5.55;;;2.40;;
9465;SDS011;4771;48.726;9.006;2023-07-20T07:31:30;4.90;;;2.00;;
9465;SDS011;4771;48.726;9.006;2023-07-20T07:34:00;3.60;;;1.95;;
9465;SDS011;4771;48.726;9.006;2023-07-20T07:36:27;2.90;;;2.00;;
9465;SDS011;4771;48.726;9.006;2023-07-20T07:38:54;5.40;;;2.10;;
9465;SDS011;4771;48.726;9.006;2023-07-20T07:41:21;3.42;;;2.10;;
9465;SDS011;4771;48.726;9.006;2023-07-20T07:43:48;4.20;;;3.20;;
9465;SDS011;4771;48.726;9.006;2023-07-20T07:46:15;5.13;;;3.55;;
9465;SDS011;4771;48.726;9.006;2023-07-20T07:48:44;8.13;;;4.55;;
9465;SDS011;4771;48.726;9.006;2023-07-20T07:51:10;6.07;;;2.33;;
9465;SDS011;4771;48.726;9.006;2023-07-20T07:53:38;7.10;;;2.25;;
9465;SDS011;4771;48.726;9.006;2023-07-20T07:56:06;6.15;;;2.30;;
9465;SDS011;4771;48.726;9.006;2023-07-20T07:58:33;4.55;;;2.08;;
9465;SDS011;4771;48.726;9.006;2023-07-20T08:01:00;13.38;;;2.75;;
9465;SDS011;4771;48.726;9.006;2023-07-20T08:03:27;5.40;;;2.40;;
9465;SDS011;4771;48.726;9.006;2023-07-20T08:05:55;4.75;;;2.00;;
9465;SDS011;4771;48.726;9.006;2023-07-20T08:08:23;3.25;;;1.73;;
9465;SDS011;4771;48.726;9.006;2023-07-20T08:10:52;8.10;;;2.40;;
9465;SDS011;4771;48.726;9.006;2023-07-20T08:13:20;4.43;;;2.42;;
9465;SDS011;4771;48.726;9.006;2023-07-20T08:15:48;4.22;;;1.85;;
9465;SDS011;4771;48.726;9.006;2023-07-20T08:18:16;3.40;;;2.10;;
9465;SDS011;4771;48.726;9.006;2023-07-20T08:20:44;3.65;;;2.53;;
9465;SDS011;4771;48.726;9.006;2023-07-20T08:23:12;4.30;;;2.30;;
9465;SDS011;4771;48.726;9.006;2023-07-20T08:25:39;3.65;;;2.28;;
9465;SDS011;4771;48.726;9.006;2023-07-20T08:28:09;2.95;;;1.80;;
9465;SDS011;4771;48.726;9.006;2023-07-20T08:30:40;5.20;;;2.15;;
9465;SDS011;4771;48.726;9.006;2023-07-20T08:33:08;2.85;;;1.75;;
9465;SDS011;4771;48.726;9.006;2023-07-20T08:35:35;6.32;;;2.20;;
9465;SDS011;4771;48.726;9.006;2023-07-20T08:38:02;3.40;;;2.08;;
9465;SDS011;4771;48.726;9.006;2023-07-20T08:40:31;3.83;;;2.05;;
9465;SDS011;4771;48.726;9.006;2023-07-20T08:42:59;3.15;;;1.80;;
9465;SDS011;4771;48.726;9.006;2023-07-20T08:45:27;3.55;;;2.00;;
9465;SDS011;4771;48.726;9.006;2023-07-20T08:47:55;3.92;;;1.83;;
9465;SDS011;4771;48.726;9.006;2023-07-20T08:50:24;2.60;;;1.70;;
9465;SDS011;4771;48.726;9.006;2023-07-20T08:52:54;5.78;;;1.65;;
9465;SDS011;4771;48.726;9.006;2023-07-20T08:55:24;4.07;;;1.65;;
9465;SDS011;4771;48.726;9.006;2023-07-20T08:57:54;4.97;;;1.80;;
9465;SDS011;4771;48.726;9.006;2023-07-20T09:00:22;2.75;;;1.73;;
9465;SDS011;4771;48.726;9.006;2023-07-20T09:02:50;4.00;;;1.88;;
9465;SDS011;4771;48.726;9.006;2023-07-20T09:05:18;2.85;;;1.80;;
9465;SDS011;4771;48.726;9.006;2023-07-20T09:07:46;3.45;;;1.80;;
9465;SDS011;4771;48.726;9.006;2023-07-20T09:10:13;3.35;;;1.60;;
9465;SDS011;4771;48.726;9.006;2023-07-20T09:12:41;7.88;;;2.00;;
9465;SDS011;4771;48.726;9.006;2023-07-20T09:15:11;5.13;;;1.77;;
9465;SDS011;4771;48.726;9.006;2023-07-20T09:17:38;3.67;;;2.50;;
9465;SDS011;4771;48.726;9.006;2023-07-20T09:20:05;3.03;;;1.88;;
9465;SDS011;4771;48.726;9.006;2023-07-20T09:22:35;4.20;;;1.67;;
9465;SDS011;4771;48.726;9.006;2023-07-20T09:25:05;3.33;;;1.50;;
9465;SDS011;4771;48.726;9.006;2023-07-20T09:27:37;2.58;;;1.60;;
9465;SDS011;4771;48.726;9.006;2023-07-20T09:30:05;3.22;;;1.70;;
9465;SDS011;4771;48.726;9.006;2023-07-20T09:32:39;1.90;;;1.70;;
9465;SDS011;4771;48.726;9.006;2023-07-20T09:35:12;2.72;;;1.55;;
9465;SDS011;4771;48.726;9.006;2023-07-20T09:37:42;2.78;;;1.70;;
9465;SDS011;4771;48.726;9.006;2023-07-20T09:40:14;3.45;;;1.80;;
9465;SDS011;4771;48.726;9.006;2023-07-20T09:42:42;1.92;;;1.38;;
9465;SDS011;4771;48.726;9.006;2023-07-20T09:45:09;3.00;;;1.60;;
9465;SDS011;4771;48.726;9.006;2023-07-20T09:47:37;2.58;;;1.58;;
9465;SDS011;4771;48.726;9.006;2023-07-20T09:50:06;3.67;;;1.48;;
9465;SDS011;4771;48.726;9.006;2023-07-20T09:52:37;3.22;;;1.60;;
9465;SDS011;4771;48.726;9.006;2023-07-20T09:55:06;3.33;;;1.80;;
9465;SDS011;4771;48.726;9.006;2023-07-20T09:57:35;4.35;;;1.70;;
9465;SDS011;4771;48.726;9.006;2023-07-20T10:00:02;2.22;;;1.52;;
9465;SDS011;4771;48.726;9.006;2023-07-20T10:02:34;1.67;;;1.55;;
9465;SDS011;4771;48.726;9.006;2023-07-20T10:05:08;1.58;;;1.40;;
9465;SDS011;4771;48.726;9.006;2023-07-20T10:07:36;3.15;;;1.60;;
9465;SDS011;4771;48.726;9.006;2023-07-20T10:10:09;4.22;;;1.40;;
9465;SDS011;4771;48.726;9.006;2023-07-20T10:12:37;1.95;;;1.70;;
9465;SDS011;4771;48.726;9.006;2023-07-20T10:15:09;3.03;;;1.70;;
9465;SDS011;4771;48.726;9.006;2023-07-20T10:17:40;2.53;;;1.73;;
9465;SDS011;4771;48.726;9.006;2023-07-20T10:20:17;2.55;;;1.52;;
9465;SDS011;4771;48.726;9.006;2023-07-20T10:22:47;1.98;;;1.60;;
9465;SDS011;4771;48.726;9.006;2023-07-20T10:25:19;3.28;;;1.50;;
9465;SDS011;4771;48.726;9.006;2023-07-20T10:27:48;1.83;;;1.48;;
9465;SDS011;4771;48.726;9.006;2023-07-20T10:30:16;1.52;;;1.30;;
9465;SDS011;4771;48.726;9.006;2023-07-20T10:32:45;3.45;;;1.52;;
9465;SDS011;4771;48.726;9.006;2023-07-20T10:35:13;1.77;;;1.30;;
9465;SDS011;4771;48.726;9.006;2023-07-20T10:37:48;3.63;;;1.73;;
9465;SDS011;4771;48.726;9.006;2023-07-20T10:40:27;3.05;;;1.50;;
9465;SDS011;4771;48.726;9.006;2023-07-20T10:43:03;1.98;;;1.60;;
9465;SDS011;4771;48.726;9.006;2023-07-20T10:45:41;2.92;;;1.27;;
9465;SDS011;4771;48.726;9.006;2023-07-20T10:48:14;2.10;;;1.45;;
9465;SDS011;4771;48.726;9.006;2023-07-20T10:50:42;3.90;;;1.48;;
9465;SDS011;4771;48.726;9.006;2023-07-20T10:53:12;1.70;;;1.30;;
9465;SDS011;4771;48.726;9.006;2023-07-20T10:55:40;1.63;;;1.30;;
9465;SDS011;4771;48.726;9.006;2023-07-20T10:58:09;3.85;;;1.45;;
9465;SDS011;4771;48.726;9.006;2023-07-20T11:00:37;4.80;;;1.30;;
9465;SDS011;4771;48.726;9.006;2023-07-20T11:03:26;4.10;;;1.60;;
9465;SDS011;4771;48.726;9.006;2023-07-20T11:05:53;2.75;;;1.45;;
9465;SDS011;4771;48.726;9.006;2023-07-20T11:08:37;2.10;;;1.52;;
9465;SDS011;4771;48.726;9.006;2023-07-20T11:11:21;3.65;;;1.50;;
9465;SDS011;4771;48.726;9.006;2023-07-20T11:13:56;2.08;;;1.30;;
9465;SDS011;4771;48.726;9.006;2023-07-20T11:16:32;2.55;;;1.20;;
9465;SDS011;4771;48.726;9.006;2023-07-20T11:19:04;1.73;;;1.45;;
9465;SDS011;4771;48.726;9.006;2023-07-20T11:21:35;2.55;;;1.40;;
9465;SDS011;4771;48.726;9.006;2023-07-20T11:24:05;2.25;;;1.40;;
9465;SDS011;4771;48.726;9.006;2023-07-20T11:26:45;4.88;;;1.50;;
9465;SDS011;4771;48.726;9.006;2023-07-20T11:29:13;3.38;;;1.52;;
9465;SDS011;4771;48.726;9.006;2023-07-20T11:31:42;1.48;;;1.35;;
9465;SDS011;4771;48.726;9.006;2023-07-20T11:34:10;3.30;;;1.20;;
9465;SDS011;4771;48.726;9.006;2023-07-20T11:36:39;3.17;;;1.45;;
9465;SDS011;4771;48.726;9.006;2023-07-20T11:39:09;4.43;;;1.23;;
9465;SDS011;4771;48.726;9.006;2023-07-20T11:41:36;3.10;;;1.48;;
9465;SDS011;4771;48.726;9.006;2023-07-20T11:44:05;1.88;;;1.40;;
9465;SDS011;4771;48.726;9.006;2023-07-20T11:46:32;2.67;;;1.40;;
9465;SDS011;4771;48.726;9.006;2023-07-20T11:49:00;1.35;;;1.00;;
9465;SDS011;4771;48.726;9.006;2023-07-20T11:51:28;1.75;;;1.10;;
9465;SDS011;4771;48.726;9.006;2023-07-20T11:53:55;2.45;;;1.27;;
9465;SDS011;4771;48.726;9.006;2023-07-20T11:56:25;4.13;;;1.40;;
9465;SDS011;4771;48.726;9.006;2023-07-20T11:58:54;1.88;;;1.27;;
9465;SDS011;4771;48.726;9.006;2023-07-20T12:01:24;2.00;;;1.80;;
9465;SDS011;4771;48.726;9.006;2023-07-20T12:03:54;2.03;;;1.50;;
9465;SDS011;4771;48.726;9.006;2023-07-20T12:06:22;1.80;;;1.27;;
9465;SDS011;4771;48.726;9.006;2023-07-20T12:08:50;3.55;;;1.30;;
9465;SDS011;4771;48.726;9.006;2023-07-20T12:14:06;5.88;;;1.98;;
9465;SDS011;4771;48.726;9.006;2023-07-20T12:16:34;1.75;;;1.40;;
9465;SDS011;4771;48.726;9.006;2023-07-20T12:19:03;1.83;;;1.27;;
9465;SDS011;4771;48.726;9.006;2023-07-20T12:21:33;1.85;;;1.20;;
9465;SDS011;4771;48.726;9.006;2023-07-20T12:24:01;1.65;;;1.23;;
9465;SDS011;4771;48.726;9.006;2023-07-20T12:26:29;1.65;;;1.40;;
9465;SDS011;4771;48.726;9.006;2023-07-20T12:28:58;1.92;;;1.40;;
9465;SDS011;4771;48.726;9.006;2023-07-20T12:31:25;2.55;;;1.23;;
9465;SDS011;4771;48.726;9.006;2023-07-20T12:33:53;1.65;;;1.30;;
9465;SDS011;4771;48.726;9.006;2023-07-20T12:36:21;2.17;;;1.40;;
9465;SDS011;4771;48.726;9.006;2023-07-20T12:38:48;2.95;;;1.40;;
9465;SDS011;4771;48.726;9.006;2023-07-20T12:41:15;2.20;;;1.33;;
9465;SDS011;4771;48.726;9.006;2023-07-20T12:43:42;3.88;;;1.40;;
9465;SDS011;4771;48.726;9.006;2023-07-20T12:46:12;1.63;;;1.25;;
9465;SDS011;4771;48.726;9.006;2023-07-20T12:48:39;2.28;;;1.30;;
9465;SDS011;4771;48.726;9.006;2023-07-20T12:51:07;2.13;;;1.42;;
9465;SDS011;4771;48.726;9.006;2023-07-20T12:53:34;3.88;;;1.50;;
9465;SDS011;4771;48.726;9.006;2023-07-20T12:56:02;1.38;;;1.20;;
9465;SDS011;4771;48.726;9.006;2023-07-20T12:58:29;1.75;;;1.60;;
9465;SDS011;4771;48.726;9.006;2023-07-20T13:00:56;2.95;;;1.70;;
9465;SDS011;4771;48.726;9.006;2023-07-20T13:03:24;1.98;;;1.30;;
9465;SDS011;4771;48.726;9.006;2023-07-20T13:05:51;1.90;;;1.30;;
9465;SDS011;4771;48.726;9.006;2023-07-20T13:08:18;3.00;;;1.30;;
9465;SDS011;4771;48.726;9.006;2023-07-20T13:10:45;2.10;;;1.45;;
9465;SDS011;4771;48.726;9.006;2023-07-20T13:13:13;1.67;;;1.38;;
9465;SDS011;4771;48.726;9.006;2023-07-20T13:15:41;3.22;;;1.30;;
9465;SDS011;4771;48.726;9.006;2023-07-20T13:18:08;1.95;;;1.30;;
9465;SDS011;4771;48.726;9.006;2023-07-20T13:20:37;2.03;;;1.20;;
9465;SDS011;4771;48.726;9.006;2023-07-20T13:23:04;1.98;;;1.38;;
9465;SDS011;4771;48.726;9.006;2023-07-20T13:25:32;3.72;;;2.58;;
9465;SDS011;4771;48.726;9.006;2023-07-20T13:27:59;2.83;;;1.40;;
9465;SDS011;4771;48.726;9.006;2023-07-20T13:30:26;1.80;;;1.40;;
9465;SDS011;4771;48.726;9.006;2023-07-20T13:32:53;1.98;;;1.20;;
9465;SDS011;4771;48.726;9.006;2023-07-20T13:35:20;4.25;;;1.50;;
9465;SDS011;4771;48.726;9.006;2023-07-20T13:37:48;2.30;;;1.30;;
9465;SDS011;4771;48.726;9.006;2023-07-20T13:40:15;5.35;;;1.70;;
9465;SDS011;4771;48.726;9.006;2023-07-20T13:42:43;1.90;;;1.20;;
9465;SDS011;4771;48.726;9.006;2023-07-20T13:45:11;1.35;;;1.20;;
9465;SDS011;4771;48.726;9.006;2023-07-20T13:47:38;1.83;;;1.33;;
9465;SDS011;4771;48.726;9.006;2023-07-20T13:50:05;3.75;;;1.30;;
9465;SDS011;4771;48.726;9.006;2023-07-20T13:52:32;3.10;;;1.55;;
9465;SDS011;4771;48.726;9.006;2023-07-20T13:55:01;6.43;;;1.70;;
9465;SDS011;4771;48.726;9.006;2023-07-20T13:57:29;1.25;;;1.10;;
9465;SDS011;4771;48.726;9.006;2023-07-20T13:59:56;1.73;;;1.42;;
9465;SDS011;4771;48.726;9.006;2023-07-20T14:02:25;2.38;;;1.55;;
9465;SDS011;4771;48.726;9.006;2023-07-20T14:04:51;2.05;;;1.60;;
9465;SDS011;4771;48.726;9.006;2023-07-20T14:07:20;2.13;;;1.30;;
9465;SDS011;4771;48.726;9.006;2023-07-20T14:09:47;3.90;;;1.70;;
9465;SDS011;4771;48.726;9.006;2023-07-20T14:12:16;3.40;;;2.45;;
9465;SDS011;4771;48.726;9.006;2023-07-20T14:14:42;2.35;;;1.92;;
9465;SDS011;4771;48.726;9.006;2023-07-20T14:17:10;3.80;;;1.88;;
9465;SDS011;4771;48.726;9.006;2023-07-20T14:19:37;4.10;;;1.38;;
9465;SDS011;4771;48.726;9.006;2023-07-20T14:22:05;1.50;;;1.20;;
9465;SDS011;4771;48.726;9.006;2023-07-20T14:24:32;2.08;;;1.25;;
9465;SDS011;4771;48.726;9.006;2023-07-20T14:26:59;2.95;;;1.33;;
9465;SDS011;4771;48.726;9.006;2023-07-20T14:29:28;1.33;;;1.20;;
9465;SDS011;4771;48.726;9.006;2023-07-20T14:31:56;2.13;;;1.30;;
9465;SDS011;4771;48.726;9.006;2023-07-20T14:34:23;3.90;;;2.05;;
9465;SDS011;4771;48.726;9.006;2023-07-20T14:36:50;5.05;;;1.40;;
9465;SDS011;4771;48.726;9.006;2023-07-20T14:39:17;3.03;;;1.52;;
9465;SDS011;4771;48.726;9.006;2023-07-20T14:41:44;3.05;;;1.52;;
9465;SDS011;4771;48.726;9.006;2023-07-20T14:44:11;1.60;;;1.42;;
9465;SDS011;4771;48.726;9.006;2023-07-20T14:46:40;3.90;;;1.55;;
9465;SDS011;4771;48.726;9.006;2023-07-20T14:49:06;1.58;;;1.27;;
9465;SDS011;4771;48.726;9.006;2023-07-20T14:51:34;2.83;;;1.48;;
9465;SDS011;4771;48.726;9.006;2023-07-20T14:54:07;2.08;;;1.35;;
9465;SDS011;4771;48.726;9.006;2023-07-20T14:56:34;3.53;;;2.13;;
9465;SDS011;4771;48.726;9.006;2023-07-20T14:59:02;1.85;;;1.50;;
9465;SDS011;4771;48.726;9.006;2023-07-20T15:01:31;3.65;;;1.45;;
9465;SDS011;4771;48.726;9.006;2023-07-20T15:03:59;2.80;;;1.30;;
9465;SDS011;4771;48.726;9.006;2023-07-20T15:06:26;1.83;;;1.45;;
9465;SDS011;4771;48.726;9.006;2023-07-20T15:08:55;1.30;;;1.20;;
9465;SDS011;4771;48.726;9.006;2023-07-20T15:11:22;1.73;;;1.30;;
9465;SDS011;4771;48.726;9.006;2023-07-20T15:13:49;1.92;;;1.30;;
9465;SDS011;4771;48.726;9.006;2023-07-20T15:16:16;3.53;;;1.50;;
9465;SDS011;4771;48.726;9.006;2023-07-20T15:18:43;2.55;;;1.52;;
9465;SDS011;4771;48.726;9.006;2023-07-20T15:21:12;1.80;;;1.20;;
9465;SDS011;4771;48.726;9.006;2023-07-20T15:23:39;1.77;;;1.30;;